sensor_id;sensor_type;location;lat;lon;timestamp;temperature;humidity
32769;DHT22;23049;54.304;8.826;2023-05-29T00:02:00;8.40;99.90
32769;DHT22;23049;54.304;8.826;2023-05-29T00:04:26;8.60;99.90
32769;DHT22;23049;54.304;8.826;2023-05-29T00:06:51;8.60;99.90
32769;DHT22;23049;54.304;8.826;2023-05-29T00:09:17;8.30;99.90
32769;DHT22;23049;54.304;8.826;2023-05-29T00:11:43;8.30;99.90
32769;DHT22;23049;54.304;8.826;2023-05-29T00:14:08;8.40;99.90
32769;DHT22;23049;54.304;8.826;2023-05-29T00:16:38;8.40;99.90
32769;DHT22;23049;54.304;8.826;2023-05-29T00:19:04;8.20;99.90
32769;DHT22;23049;54.304;8.826;2023-05-29T00:21:29;8.10;99.90
32769;DHT22;23049;54.304;8.826;2023-05-29T00:23:55;8.10;99.90
32769;DHT22;23049;54.304;8.826;2023-05-29T00:26:21;8.20;99.90
32769;DHT22;23049;54.304;8.826;2023-05-29T00:28:47;8.20;99.90
32769;DHT22;23049;54.304;8.826;2023-05-29T00:31:12;8.20;99.90
32769;DHT22;23049;54.304;8.826;2023-05-29T00:33:38;8.20;99.90
32769;DHT22;23049;54.304;8.826;2023-05-29T00:36:03;8.20;99.90
32769;DHT22;23049;54.304;8.826;2023-05-29T00:38:30;8.30;99.90
32769;DHT22;23049;54.304;8.826;2023-05-29T00:40:56;8.30;99.90
32769;DHT22;23049;54.304;8.826;2023-05-29T00:43:21;8.40;99.90
32769;DHT22;23049;54.304;8.826;2023-05-29T00:45:47;8.70;99.90
32769;DHT22;23049;54.304;8.826;2023-05-29T00:48:12;8.60;99.90
32769;DHT22;23049;54.304;8.826;2023-05-29T00:50:38;8.70;99.90
32769;DHT22;23049;54.304;8.826;2023-05-29T00:53:03;8.80;99.90
32769;DHT22;23049;54.304;8.826;2023-05-29T00:55:30;8.70;99.90
32769;DHT22;23049;54.304;8.826;2023-05-29T00:57:55;8.60;99.90
32769;DHT22;23049;54.304;8.826;2023-05-29T01:00:21;8.70;99.90
32769;DHT22;23049;54.304;8.826;2023-05-29T01:02:46;9.00;99.90
32769;DHT22;23049;54.304;8.826;2023-05-29T01:05:12;8.80;99.90
32769;DHT22;23049;54.304;8.826;2023-05-29T01:07:38;8.50;99.90
32769;DHT22;23049;54.304;8.826;2023-05-29T01:10:05;8.50;99.90
32769;DHT22;23049;54.304;8.826;2023-05-29T01:25:22;8.50;99.90
32769;DHT22;23049;54.304;8.826;2023-05-29T01:27:48;8.70;99.90
32769;DHT22;23049;54.304;8.826;2023-05-29T01:30:14;8.80;99.90
32769;DHT22;23049;54.304;8.826;2023-05-29T01:32:40;8.60;99.90
32769;DHT22;23049;54.304;8.826;2023-05-29T01:35:06;8.50;99.90
32769;DHT22;23049;54.304;8.826;2023-05-29T01:37:32;8.40;99.90
32769;DHT22;23049;54.304;8.826;2023-05-29T01:39:57;8.50;99.90
32769;DHT22;23049;54.304;8.826;2023-05-29T01:42:23;8.80;99.90
32769;DHT22;23049;54.304;8.826;2023-05-29T01:44:48;9.00;99.90
32769;DHT22;23049;54.304;8.826;2023-05-29T01:49:27;9.00;99.90
32769;DHT22;23049;54.304;8.826;2023-05-29T01:51:53;9.00;99.90
32769;DHT22;23049;54.304;8.826;2023-05-29T01:54:18;8.90;99.90
32769;DHT22;23049;54.304;8.826;2023-05-29T01:56:44;8.90;99.90
32769;DHT22;23049;54.304;8.826;2023-05-29T01:59:11;8.90;99.90
32769;DHT22;23049;54.304;8.826;2023-05-29T02:01:41;8.70;99.90
32769;DHT22;23049;54.304;8.826;2023-05-29T02:04:06;8.70;99.90
32769;DHT22;23049;54.304;8.826;2023-05-29T02:06:32;8.70;99.90
32769;DHT22;23049;54.304;8.826;2023-05-29T02:08:58;8.80;99.90
32769;DHT22;23049;54.304;8.826;2023-05-29T02:11:24;8.80;99.90
32769;DHT22;23049;54.304;8.826;2023-05-29T02:13:51;9.10;99.90
32769;DHT22;23049;54.304;8.826;2023-05-29T02:16:16;9.20;99.90
32769;DHT22;23049;54.304;8.826;2023-05-29T02:18:42;9.30;99.90
32769;DHT22;23049;54.304;8.826;2023-05-29T02:21:08;9.30;99.90
32769;DHT22;23049;54.304;8.826;2023-05-29T02:23:34;9.20;99.90
32769;DHT22;23049;54.304;8.826;2023-05-29T02:25:59;9.30;99.90
32769;DHT22;23049;54.304;8.826;2023-05-29T02:28:25;9.30;99.90
32769;DHT22;23049;54.304;8.826;2023-05-29T02:30:50;9.30;99.90
32769;DHT22;23049;54.304;8.826;2023-05-29T02:33:16;9.30;99.90
32769;DHT22;23049;54.304;8.826;2023-05-29T02:35:41;9.30;99.90
32769;DHT22;23049;54.304;8.826;2023-05-29T02:38:07;9.20;99.90
32769;DHT22;23049;54.304;8.826;2023-05-29T02:40:32;9.20;99.90
32769;DHT22;23049;54.304;8.826;2023-05-29T02:42:58;9.10;99.90
32769;DHT22;23049;54.304;8.826;2023-05-29T02:45:23;9.10;99.90
32769;DHT22;23049;54.304;8.826;2023-05-29T02:47:49;9.20;99.90
32769;DHT22;23049;54.304;8.826;2023-05-29T02:50:14;9.20;99.90
32769;DHT22;23049;54.304;8.826;2023-05-29T02:52:40;9.20;99.90
32769;DHT22;23049;54.304;8.826;2023-05-29T02:55:06;9.20;99.90
32769;DHT22;23049;54.304;8.826;2023-05-29T02:57:32;9.20;99.90
32769;DHT22;23049;54.304;8.826;2023-05-29T02:59:58;9.20;99.90
32769;DHT22;23049;54.304;8.826;2023-05-29T03:02:23;9.20;99.90
32769;DHT22;23049;54.304;8.826;2023-05-29T03:04:49;9.20;99.90
32769;DHT22;23049;54.304;8.826;2023-05-29T03:07:16;9.30;99.90
32769;DHT22;23049;54.304;8.826;2023-05-29T03:09:41;9.30;99.90
32769;DHT22;23049;54.304;8.826;2023-05-29T03:12:07;9.40;99.90
32769;DHT22;23049;54.304;8.826;2023-05-29T03:14:33;9.40;99.90
32769;DHT22;23049;54.304;8.826;2023-05-29T03:17:01;9.40;99.90
32769;DHT22;23049;54.304;8.826;2023-05-29T03:19:27;9.50;99.90
32769;DHT22;23049;54.304;8.826;2023-05-29T03:21:52;9.50;99.90
32769;DHT22;23049;54.304;8.826;2023-05-29T03:24:18;9.50;99.90
32769;DHT22;23049;54.304;8.826;2023-05-29T03:26:43;9.60;99.90
32769;DHT22;23049;54.304;8.826;2023-05-29T03:29:09;9.60;99.90
32769;DHT22;23049;54.304;8.826;2023-05-29T03:31:34;9.70;99.90
32769;DHT22;23049;54.304;8.826;2023-05-29T03:34:00;9.80;99.90
32769;DHT22;23049;54.304;8.826;2023-05-29T03:36:26;9.70;99.90
32769;DHT22;23049;54.304;8.826;2023-05-29T03:38:52;9.70;99.90
32769;DHT22;23049;54.304;8.826;2023-05-29T03:41:17;9.70;99.90
32769;DHT22;23049;54.304;8.826;2023-05-29T03:43:43;9.70;99.90
32769;DHT22;23049;54.304;8.826;2023-05-29T03:46:08;9.70;99.90
32769;DHT22;23049;54.304;8.826;2023-05-29T03:48:34;9.60;99.90
32769;DHT22;23049;54.304;8.826;2023-05-29T03:50:59;9.60;99.90
32769;DHT22;23049;54.304;8.826;2023-05-29T03:53:25;9.60;99.90
32769;DHT22;23049;54.304;8.826;2023-05-29T03:55:50;9.50;99.90
32769;DHT22;23049;54.304;8.826;2023-05-29T03:58:16;9.40;99.90
32769;DHT22;23049;54.304;8.826;2023-05-29T04:00:41;9.40;99.90
32769;DHT22;23049;54.304;8.826;2023-05-29T04:03:07;9.50;99.90
32769;DHT22;23049;54.304;8.826;2023-05-29T04:05:33;9.80;99.90
32769;DHT22;23049;54.304;8.826;2023-05-29T04:07:58;9.90;99.90
32769;DHT22;23049;54.304;8.826;2023-05-29T04:10:24;10.00;99.90
32769;DHT22;23049;54.304;8.826;2023-05-29T04:12:50;10.10;99.90
32769;DHT22;23049;54.304;8.826;2023-05-29T04:15:16;10.20;99.90
32769;DHT22;23049;54.304;8.826;2023-05-29T04:17:42;10.20;99.90
32769;DHT22;23049;54.304;8.826;2023-05-29T04:20:07;10.30;99.90
32769;DHT22;23049;54.304;8.826;2023-05-29T04:22:34;10.30;99.90
32769;DHT22;23049;54.304;8.826;2023-05-29T04:25:01;10.30;99.90
32769;DHT22;23049;54.304;8.826;2023-05-29T04:27:26;10.30;99.90
32769;DHT22;23049;54.304;8.826;2023-05-29T04:29:52;10.30;99.90
32769;DHT22;23049;54.304;8.826;2023-05-29T04:32:18;10.20;99.90
32769;DHT22;23049;54.304;8.826;2023-05-29T04:34:44;10.20;99.90
32769;DHT22;23049;54.304;8.826;2023-05-29T04:37:09;10.20;99.90
32769;DHT22;23049;54.304;8.826;2023-05-29T04:39:35;10.20;99.90
32769;DHT22;23049;54.304;8.826;2023-05-29T04:42:01;10.30;99.90
32769;DHT22;23049;54.304;8.826;2023-05-29T04:44:26;10.30;99.90
32769;DHT22;23049;54.304;8.826;2023-05-29T04:46:52;10.40;99.90
32769;DHT22;23049;54.304;8.826;2023-05-29T04:49:18;10.40;99.90
32769;DHT22;23049;54.304;8.826;2023-05-29T04:51:44;10.40;99.90
32769;DHT22;23049;54.304;8.826;2023-05-29T04:54:10;10.40;99.90
32769;DHT22;23049;54.304;8.826;2023-05-29T04:56:35;10.50;99.90
32769;DHT22;23049;54.304;8.826;2023-05-29T04:59:02;10.60;99.90
32769;DHT22;23049;54.304;8.826;2023-05-29T05:01:27;10.80;99.90
32769;DHT22;23049;54.304;8.826;2023-05-29T05:03:54;10.90;99.90
32769;DHT22;23049;54.304;8.826;2023-05-29T05:06:21;11.00;99.90
32769;DHT22;23049;54.304;8.826;2023-05-29T05:08:47;11.00;99.90
32769;DHT22;23049;54.304;8.826;2023-05-29T05:11:12;11.00;99.90
32769;DHT22;23049;54.304;8.826;2023-05-29T05:13:39;11.10;99.90
32769;DHT22;23049;54.304;8.826;2023-05-29T05:16:04;11.10;99.90
32769;DHT22;23049;54.304;8.826;2023-05-29T05:18:30;11.10;99.90
32769;DHT22;23049;54.304;8.826;2023-05-29T05:20:55;11.30;99.90
32769;DHT22;23049;54.304;8.826;2023-05-29T05:23:21;11.30;99.90
32769;DHT22;23049;54.304;8.826;2023-05-29T05:25:46;11.10;99.90
32769;DHT22;23049;54.304;8.826;2023-05-29T05:28:12;11.30;99.90
32769;DHT22;23049;54.304;8.826;2023-05-29T05:30:38;11.50;99.90
32769;DHT22;23049;54.304;8.826;2023-05-29T05:33:03;11.70;99.90
32769;DHT22;23049;54.304;8.826;2023-05-29T05:35:29;11.60;99.90
32769;DHT22;23049;54.304;8.826;2023-05-29T05:37:54;11.50;99.90
32769;DHT22;23049;54.304;8.826;2023-05-29T05:40:23;11.50;99.90
32769;DHT22;23049;54.304;8.826;2023-05-29T05:42:49;11.50;99.90
32769;DHT22;23049;54.304;8.826;2023-05-29T05:45:14;11.50;99.90
32769;DHT22;23049;54.304;8.826;2023-05-29T05:47:40;11.50;99.90
32769;DHT22;23049;54.304;8.826;2023-05-29T05:50:05;11.50;99.90
32769;DHT22;23049;54.304;8.826;2023-05-29T05:52:31;11.70;99.90
32769;DHT22;23049;54.304;8.826;2023-05-29T05:54:57;11.60;99.90
32769;DHT22;23049;54.304;8.826;2023-05-29T05:57:23;11.60;99.90
32769;DHT22;23049;54.304;8.826;2023-05-29T05:59:48;11.50;99.90
32769;DHT22;23049;54.304;8.826;2023-05-29T06:02:14;11.60;99.90
32769;DHT22;23049;54.304;8.826;2023-05-29T06:04:40;11.60;99.90
32769;DHT22;23049;54.304;8.826;2023-05-29T06:07:05;11.70;99.90
32769;DHT22;23049;54.304;8.826;2023-05-29T06:09:31;12.10;99.90
32769;DHT22;23049;54.304;8.826;2023-05-29T06:11:57;12.10;99.90
32769;DHT22;23049;54.304;8.826;2023-05-29T06:14:23;12.50;99.90
32769;DHT22;23049;54.304;8.826;2023-05-29T06:16:48;12.80;99.90
32769;DHT22;23049;54.304;8.826;2023-05-29T06:19:14;13.20;99.90
32769;DHT22;23049;54.304;8.826;2023-05-29T06:21:40;13.20;99.90
32769;DHT22;23049;54.304;8.826;2023-05-29T06:24:06;13.20;99.90
32769;DHT22;23049;54.304;8.826;2023-05-29T06:26:32;13.50;99.90
32769;DHT22;23049;54.304;8.826;2023-05-29T06:28:57;13.50;99.90
32769;DHT22;23049;54.304;8.826;2023-05-29T06:31:23;13.20;99.90
32769;DHT22;23049;54.304;8.826;2023-05-29T06:33:48;13.00;99.90
32769;DHT22;23049;54.304;8.826;2023-05-29T06:36:14;13.00;99.90
32769;DHT22;23049;54.304;8.826;2023-05-29T06:38:39;13.00;99.90
32769;DHT22;23049;54.304;8.826;2023-05-29T06:41:05;13.20;99.90
32769;DHT22;23049;54.304;8.826;2023-05-29T06:43:30;12.90;99.90
32769;DHT22;23049;54.304;8.826;2023-05-29T06:45:56;12.90;99.90
32769;DHT22;23049;54.304;8.826;2023-05-29T06:48:21;12.80;99.90
32769;DHT22;23049;54.304;8.826;2023-05-29T06:50:47;12.80;99.90
32769;DHT22;23049;54.304;8.826;2023-05-29T06:53:13;13.00;99.90
32769;DHT22;23049;54.304;8.826;2023-05-29T06:55:38;13.10;99.90
32769;DHT22;23049;54.304;8.826;2023-05-29T06:58:06;13.00;99.90
32769;DHT22;23049;54.304;8.826;2023-05-29T07:00:31;13.10;99.90
32769;DHT22;23049;54.304;8.826;2023-05-29T07:02:57;13.40;99.90
32769;DHT22;23049;54.304;8.826;2023-05-29T07:05:22;13.60;99.90
32769;DHT22;23049;54.304;8.826;2023-05-29T07:07:48;13.50;99.90
32769;DHT22;23049;54.304;8.826;2023-05-29T07:10:13;13.60;99.90
32769;DHT22;23049;54.304;8.826;2023-05-29T07:12:39;13.40;99.90
32769;DHT22;23049;54.304;8.826;2023-05-29T07:15:04;13.40;99.90
32769;DHT22;23049;54.304;8.826;2023-05-29T07:17:30;13.10;99.90
32769;DHT22;23049;54.304;8.826;2023-05-29T07:19:56;13.20;99.90
32769;DHT22;23049;54.304;8.826;2023-05-29T07:22:21;13.20;99.90
32769;DHT22;23049;54.304;8.826;2023-05-29T07:24:47;13.00;99.90
32769;DHT22;23049;54.304;8.826;2023-05-29T07:27:12;13.10;99.90
32769;DHT22;23049;54.304;8.826;2023-05-29T07:29:38;13.30;99.90
32769;DHT22;23049;54.304;8.826;2023-05-29T07:32:03;13.30;99.90
32769;DHT22;23049;54.304;8.826;2023-05-29T07:34:29;13.30;99.90
32769;DHT22;23049;54.304;8.826;2023-05-29T07:39:23;13.20;99.90
32769;DHT22;23049;54.304;8.826;2023-05-29T07:41:49;13.30;99.90
32769;DHT22;23049;54.304;8.826;2023-05-29T07:44:15;13.00;99.90
32769;DHT22;23049;54.304;8.826;2023-05-29T07:46:40;12.90;99.90
32769;DHT22;23049;54.304;8.826;2023-05-29T07:49:06;13.10;99.90
32769;DHT22;23049;54.304;8.826;2023-05-29T07:51:31;13.20;99.90
32769;DHT22;23049;54.304;8.826;2023-05-29T07:53:57;12.90;99.90
32769;DHT22;23049;54.304;8.826;2023-05-29T07:56:23;12.90;99.90
32769;DHT22;23049;54.304;8.826;2023-05-29T07:58:48;12.90;99.90
32769;DHT22;23049;54.304;8.826;2023-05-29T08:01:14;13.00;99.90
32769;DHT22;23049;54.304;8.826;2023-05-29T08:03:41;13.30;99.90
32769;DHT22;23049;54.304;8.826;2023-05-29T08:06:06;13.30;99.90
32769;DHT22;23049;54.304;8.826;2023-05-29T08:08:32;13.50;99.90
32769;DHT22;23049;54.304;8.826;2023-05-29T08:10:57;13.50;99.90
32769;DHT22;23049;54.304;8.826;2023-05-29T08:13:23;13.60;99.90
32769;DHT22;23049;54.304;8.826;2023-05-29T08:15:48;13.70;99.90
32769;DHT22;23049;54.304;8.826;2023-05-29T08:18:14;13.70;99.90
32769;DHT22;23049;54.304;8.826;2023-05-29T08:20:39;13.70;99.90
32769;DHT22;23049;54.304;8.826;2023-05-29T08:23:05;13.60;99.90
32769;DHT22;23049;54.304;8.826;2023-05-29T08:25:31;13.60;99.90
32769;DHT22;23049;54.304;8.826;2023-05-29T08:27:56;13.60;99.90
32769;DHT22;23049;54.304;8.826;2023-05-29T08:30:22;13.70;99.90
32769;DHT22;23049;54.304;8.826;2023-05-29T08:32:47;13.70;99.90
32769;DHT22;23049;54.304;8.826;2023-05-29T08:35:13;13.60;99.90
32769;DHT22;23049;54.304;8.826;2023-05-29T08:37:39;13.70;99.90
32769;DHT22;23049;54.304;8.826;2023-05-29T08:40:05;13.90;99.90
32769;DHT22;23049;54.304;8.826;2023-05-29T08:42:36;13.90;99.90
32769;DHT22;23049;54.304;8.826;2023-05-29T08:45:04;13.80;99.90
32769;DHT22;23049;54.304;8.826;2023-05-29T08:47:33;13.80;99.90
32769;DHT22;23049;54.304;8.826;2023-05-29T08:49:58;13.70;99.90
32769;DHT22;23049;54.304;8.826;2023-05-29T08:52:25;13.70;99.90
32769;DHT22;23049;54.304;8.826;2023-05-29T08:54:55;13.50;99.90
32769;DHT22;23049;54.304;8.826;2023-05-29T08:57:20;13.40;99.90
32769;DHT22;23049;54.304;8.826;2023-05-29T08:59:47;13.60;99.90
32769;DHT22;23049;54.304;8.826;2023-05-29T09:02:14;13.60;99.90
32769;DHT22;23049;54.304;8.826;2023-05-29T09:04:41;13.60;99.90
32769;DHT22;23049;54.304;8.826;2023-05-29T09:07:07;13.60;99.90
32769;DHT22;23049;54.304;8.826;2023-05-29T09:09:34;13.60;99.90
32769;DHT22;23049;54.304;8.826;2023-05-29T09:11:59;13.70;99.90
32769;DHT22;23049;54.304;8.826;2023-05-29T09:14:38;13.80;99.90
32769;DHT22;23049;54.304;8.826;2023-05-29T09:17:06;13.90;99.90
32769;DHT22;23049;54.304;8.826;2023-05-29T09:19:32;14.00;99.90
32769;DHT22;23049;54.304;8.826;2023-05-29T09:22:02;14.00;99.90
32769;DHT22;23049;54.304;8.826;2023-05-29T09:24:28;14.00;99.90
32769;DHT22;23049;54.304;8.826;2023-05-29T09:26:53;14.10;99.90
32769;DHT22;23049;54.304;8.826;2023-05-29T09:29:19;14.00;99.90
32769;DHT22;23049;54.304;8.826;2023-05-29T09:31:45;13.90;99.90
32769;DHT22;23049;54.304;8.826;2023-05-29T09:34:12;13.90;99.90
32769;DHT22;23049;54.304;8.826;2023-05-29T09:36:37;14.00;99.90
32769;DHT22;23049;54.304;8.826;2023-05-29T09:39:03;14.00;99.90
32769;DHT22;23049;54.304;8.826;2023-05-29T09:41:29;14.30;99.90
32769;DHT22;23049;54.304;8.826;2023-05-29T09:43:56;14.20;99.90
32769;DHT22;23049;54.304;8.826;2023-05-29T09:46:22;14.00;99.90
32769;DHT22;23049;54.304;8.826;2023-05-29T09:48:48;14.00;99.90
32769;DHT22;23049;54.304;8.826;2023-05-29T09:51:20;14.10;99.90
32769;DHT22;23049;54.304;8.826;2023-05-29T09:53:47;14.10;99.90
32769;DHT22;23049;54.304;8.826;2023-05-29T09:56:13;14.20;99.90
32769;DHT22;23049;54.304;8.826;2023-05-29T09:58:42;14.20;99.90
32769;DHT22;23049;54.304;8.826;2023-05-29T10:01:15;14.20;99.90
32769;DHT22;23049;54.304;8.826;2023-05-29T10:03:43;14.30;99.90
32769;DHT22;23049;54.304;8.826;2023-05-29T10:06:12;14.30;99.90
32769;DHT22;23049;54.304;8.826;2023-05-29T10:08:43;14.30;99.90
32769;DHT22;23049;54.304;8.826;2023-05-29T10:11:10;14.30;99.90
32769;DHT22;23049;54.304;8.826;2023-05-29T10:13:41;14.20;99.90
32769;DHT22;23049;54.304;8.826;2023-05-29T10:16:08;14.20;99.90
32769;DHT22;23049;54.304;8.826;2023-05-29T10:18:37;14.20;99.90
32769;DHT22;23049;54.304;8.826;2023-05-29T10:21:03;14.20;99.90
32769;DHT22;23049;54.304;8.826;2023-05-29T10:23:29;14.20;99.90
32769;DHT22;23049;54.304;8.826;2023-05-29T10:25:57;14.20;99.90
32769;DHT22;23049;54.304;8.826;2023-05-29T10:28:24;14.30;99.90
32769;DHT22;23049;54.304;8.826;2023-05-29T10:30:54;14.30;99.90
32769;DHT22;23049;54.304;8.826;2023-05-29T10:33:29;14.30;99.90
32769;DHT22;23049;54.304;8.826;2023-05-29T10:38:41;14.50;99.90
32769;DHT22;23049;54.304;8.826;2023-05-29T10:43:54;14.60;99.90
32769;DHT22;23049;54.304;8.826;2023-05-29T10:46:20;14.60;99.90
32769;DHT22;23049;54.304;8.826;2023-05-29T10:48:48;14.60;99.90
32769;DHT22;23049;54.304;8.826;2023-05-29T10:51:25;14.50;99.90
32769;DHT22;23049;54.304;8.826;2023-05-29T10:53:51;14.70;99.90
32769;DHT22;23049;54.304;8.826;2023-05-29T10:56:21;14.90;99.90
32769;DHT22;23049;54.304;8.826;2023-05-29T10:58:52;14.90;99.90
32769;DHT22;23049;54.304;8.826;2023-05-29T11:01:20;15.00;99.90
32769;DHT22;23049;54.304;8.826;2023-05-29T11:03:46;15.00;99.90
32769;DHT22;23049;54.304;8.826;2023-05-29T11:06:19;14.90;99.90
32769;DHT22;23049;54.304;8.826;2023-05-29T11:11:11;15.00;99.90
32769;DHT22;23049;54.304;8.826;2023-05-29T11:13:37;14.90;99.90
32769;DHT22;23049;54.304;8.826;2023-05-29T11:18:31;15.00;99.90
32769;DHT22;23049;54.304;8.826;2023-05-29T11:20:57;15.10;99.90
32769;DHT22;23049;54.304;8.826;2023-05-29T11:23:24;15.00;99.90
32769;DHT22;23049;54.304;8.826;2023-05-29T11:25:56;15.00;99.90
32769;DHT22;23049;54.304;8.826;2023-05-29T11:28:22;15.10;99.90
32769;DHT22;23049;54.304;8.826;2023-05-29T11:30:48;15.00;99.90
32769;DHT22;23049;54.304;8.826;2023-05-29T11:33:22;14.90;99.90
32769;DHT22;23049;54.304;8.826;2023-05-29T11:35:50;15.00;99.90
32769;DHT22;23049;54.304;8.826;2023-05-29T11:38:16;15.10;99.90
32769;DHT22;23049;54.304;8.826;2023-05-29T11:40:42;15.00;99.90
32769;DHT22;23049;54.304;8.826;2023-05-29T11:43:08;15.00;99.90
32769;DHT22;23049;54.304;8.826;2023-05-29T11:45:33;14.90;99.90
32769;DHT22;23049;54.304;8.826;2023-05-29T11:48:01;15.10;99.90
32769;DHT22;23049;54.304;8.826;2023-05-29T11:50:28;15.00;99.90
32769;DHT22;23049;54.304;8.826;2023-05-29T11:52:55;15.20;99.90
32769;DHT22;23049;54.304;8.826;2023-05-29T11:55:21;15.20;99.90
32769;DHT22;23049;54.304;8.826;2023-05-29T11:57:47;15.20;99.90
32769;DHT22;23049;54.304;8.826;2023-05-29T12:00:14;15.10;99.90
32769;DHT22;23049;54.304;8.826;2023-05-29T12:02:40;15.10;99.90
32769;DHT22;23049;54.304;8.826;2023-05-29T12:05:07;14.90;99.90
32769;DHT22;23049;54.304;8.826;2023-05-29T12:07:33;15.10;99.90
32769;DHT22;23049;54.304;8.826;2023-05-29T12:10:08;15.20;99.90
32769;DHT22;23049;54.304;8.826;2023-05-29T12:12:34;15.10;99.90
32769;DHT22;23049;54.304;8.826;2023-05-29T12:15:01;15.30;99.90
32769;DHT22;23049;54.304;8.826;2023-05-29T12:17:30;15.20;99.90
32769;DHT22;23049;54.304;8.826;2023-05-29T12:19:56;15.40;99.90
32769;DHT22;23049;54.304;8.826;2023-05-29T12:22:34;15.50;99.90
32769;DHT22;23049;54.304;8.826;2023-05-29T12:25:10;15.50;99.90
32769;DHT22;23049;54.304;8.826;2023-05-29T12:27:40;15.50;99.90
32769;DHT22;23049;54.304;8.826;2023-05-29T12:30:09;15.40;99.90
32769;DHT22;23049;54.304;8.826;2023-05-29T12:32:38;15.50;99.90
32769;DHT22;23049;54.304;8.826;2023-05-29T12:37:41;15.70;99.90
32769;DHT22;23049;54.304;8.826;2023-05-29T12:40:19;15.50;99.90
32769;DHT22;23049;54.304;8.826;2023-05-29T12:42:48;15.40;99.90
32769;DHT22;23049;54.304;8.826;2023-05-29T12:45:14;15.40;99.90
32769;DHT22;23049;54.304;8.826;2023-05-29T12:48:02;15.60;99.90
32769;DHT22;23049;54.304;8.826;2023-05-29T12:50:28;15.70;99.90
32769;DHT22;23049;54.304;8.826;2023-05-29T12:52:56;15.80;99.90
32769;DHT22;23049;54.304;8.826;2023-05-29T12:55:22;15.60;99.90
32769;DHT22;23049;54.304;8.826;2023-05-29T12:57:47;15.50;99.90
32769;DHT22;23049;54.304;8.826;2023-05-29T13:00:13;15.40;99.90
32769;DHT22;23049;54.304;8.826;2023-05-29T13:02:39;15.50;99.90
32769;DHT22;23049;54.304;8.826;2023-05-29T13:05:04;15.60;99.90
32769;DHT22;23049;54.304;8.826;2023-05-29T13:07:31;15.40;99.90
32769;DHT22;23049;54.304;8.826;2023-05-29T13:09:56;15.50;99.90
32769;DHT22;23049;54.304;8.826;2023-05-29T13:12:22;15.50;99.90
32769;DHT22;23049;54.304;8.826;2023-05-29T13:14:47;15.50;99.90
32769;DHT22;23049;54.304;8.826;2023-05-29T13:17:13;15.50;99.90
32769;DHT22;23049;54.304;8.826;2023-05-29T13:19:38;15.60;99.90
32769;DHT22;23049;54.304;8.826;2023-05-29T13:22:04;15.60;99.90
32769;DHT22;23049;54.304;8.826;2023-05-29T13:24:30;15.70;99.90
32769;DHT22;23049;54.304;8.826;2023-05-29T13:26:55;15.60;99.90
32769;DHT22;23049;54.304;8.826;2023-05-29T13:29:21;15.50;99.90
32769;DHT22;23049;54.304;8.826;2023-05-29T13:31:46;15.60;99.90
32769;DHT22;23049;54.304;8.826;2023-05-29T13:34:12;15.60;99.90
32769;DHT22;23049;54.304;8.826;2023-05-29T13:36:37;15.50;99.90
32769;DHT22;23049;54.304;8.826;2023-05-29T13:39:02;15.30;99.90
32769;DHT22;23049;54.304;8.826;2023-05-29T13:41:30;15.40;99.90
32769;DHT22;23049;54.304;8.826;2023-05-29T13:43:56;15.40;99.90
32769;DHT22;23049;54.304;8.826;2023-05-29T13:46:22;15.20;99.90
32769;DHT22;23049;54.304;8.826;2023-05-29T13:48:47;15.20;99.90
32769;DHT22;23049;54.304;8.826;2023-05-29T13:51:13;15.20;99.90
32769;DHT22;23049;54.304;8.826;2023-05-29T13:53:38;15.30;99.90
32769;DHT22;23049;54.304;8.826;2023-05-29T13:58:16;15.10;99.90
32769;DHT22;23049;54.304;8.826;2023-05-29T14:00:42;15.10;99.90
32769;DHT22;23049;54.304;8.826;2023-05-29T14:03:07;15.20;99.90
32769;DHT22;23049;54.304;8.826;2023-05-29T14:05:33;15.40;99.90
32769;DHT22;23049;54.304;8.826;2023-05-29T14:07:59;15.40;99.90
32769;DHT22;23049;54.304;8.826;2023-05-29T14:10:24;15.00;99.90
32769;DHT22;23049;54.304;8.826;2023-05-29T14:12:50;15.10;99.90
32769;DHT22;23049;54.304;8.826;2023-05-29T14:15:16;15.10;99.90
32769;DHT22;23049;54.304;8.826;2023-05-29T14:17:41;15.10;99.90
32769;DHT22;23049;54.304;8.826;2023-05-29T14:20:07;15.00;99.90
32769;DHT22;23049;54.304;8.826;2023-05-29T14:22:33;15.00;99.90
32769;DHT22;23049;54.304;8.826;2023-05-29T14:25:00;15.10;99.90
32769;DHT22;23049;54.304;8.826;2023-05-29T14:27:26;15.10;99.90
32769;DHT22;23049;54.304;8.826;2023-05-29T14:29:51;15.10;99.90
32769;DHT22;23049;54.304;8.826;2023-05-29T14:32:17;15.00;99.90
32769;DHT22;23049;54.304;8.826;2023-05-29T14:34:42;15.00;99.90
32769;DHT22;23049;54.304;8.826;2023-05-29T14:37:08;14.90;99.90
32769;DHT22;23049;54.304;8.826;2023-05-29T14:39:33;14.80;99.90
32769;DHT22;23049;54.304;8.826;2023-05-29T14:41:59;14.80;99.90
32769;DHT22;23049;54.304;8.826;2023-05-29T14:44:24;14.80;99.90
32769;DHT22;23049;54.304;8.826;2023-05-29T14:46:50;14.80;99.90
32769;DHT22;23049;54.304;8.826;2023-05-29T14:49:15;14.80;99.90
32769;DHT22;23049;54.304;8.826;2023-05-29T14:51:41;14.60;99.90
32769;DHT22;23049;54.304;8.826;2023-05-29T14:54:08;14.60;99.90
32769;DHT22;23049;54.304;8.826;2023-05-29T14:56:34;14.60;99.90
32769;DHT22;23049;54.304;8.826;2023-05-29T14:59:00;14.70;99.90
32769;DHT22;23049;54.304;8.826;2023-05-29T15:01:25;14.80;99.90
32769;DHT22;23049;54.304;8.826;2023-05-29T15:03:51;14.70;99.90
32769;DHT22;23049;54.304;8.826;2023-05-29T15:06:16;14.80;99.90
32769;DHT22;23049;54.304;8.826;2023-05-29T15:08:42;14.70;99.90
32769;DHT22;23049;54.304;8.826;2023-05-29T15:11:08;14.80;99.90
32769;DHT22;23049;54.304;8.826;2023-05-29T15:13:34;14.70;99.90
32769;DHT22;23049;54.304;8.826;2023-05-29T15:16:00;14.80;99.90
32769;DHT22;23049;54.304;8.826;2023-05-29T15:18:28;14.50;99.90
32769;DHT22;23049;54.304;8.826;2023-05-29T15:20:53;14.30;99.90
32769;DHT22;23049;54.304;8.826;2023-05-29T15:23:19;14.30;99.90
32769;DHT22;23049;54.304;8.826;2023-05-29T15:25:48;14.50;99.90
32769;DHT22;23049;54.304;8.826;2023-05-29T15:28:14;14.40;99.90
32769;DHT22;23049;54.304;8.826;2023-05-29T15:30:39;14.40;99.90
32769;DHT22;23049;54.304;8.826;2023-05-29T15:33:05;14.40;99.90
32769;DHT22;23049;54.304;8.826;2023-05-29T15:35:33;14.30;99.90
32769;DHT22;23049;54.304;8.826;2023-05-29T15:37:58;14.30;99.90
32769;DHT22;23049;54.304;8.826;2023-05-29T15:40:24;14.40;99.90
32769;DHT22;23049;54.304;8.826;2023-05-29T15:42:49;14.20;99.90
32769;DHT22;23049;54.304;8.826;2023-05-29T15:45:15;14.30;99.90
32769;DHT22;23049;54.304;8.826;2023-05-29T15:47:40;14.20;99.90
32769;DHT22;23049;54.304;8.826;2023-05-29T15:50:06;14.00;99.90
32769;DHT22;23049;54.304;8.826;2023-05-29T15:52:32;13.90;99.90
32769;DHT22;23049;54.304;8.826;2023-05-29T15:54:57;13.80;99.90
32769;DHT22;23049;54.304;8.826;2023-05-29T15:57:23;13.70;99.90
32769;DHT22;23049;54.304;8.826;2023-05-29T15:59:48;13.70;99.90
32769;DHT22;23049;54.304;8.826;2023-05-29T16:02:14;13.80;99.90